CheckWX is a tool to help pilots better visualize weather data.  It is not intended as a substitute for an official pre-flight weather briefing.

18:01:57 UTC

EDAC METAR
Altenburg-Nobitz Airport
Altenburg, Germany
Current

12 mins ago

EDAC 241750Z AUTO 29002KT 9000 // BKN036/// BKN043/// 07/05 Q1021
Observed
Mar-24 @ 17:50 UTC
Wind
  • 290° at 2 KTS
Visibility
8,996 meters
Flight Rules
VFR
Cloud Levels
  • Broken at 3,600' AGL
  • Broken at 4,300' AGL
Temperature
C / 45°F
Dewpoint
C / 41°F
Humidity
87%
Altimeter
30.15" Hg
Pressure
1020.92 hPa
Previous

42 mins ago

EDAC 241720Z AUTO 33005KT 9000 // BKN037/// OVC047/// 07/05 Q1022
Observed
Mar-24 @ 17:20 UTC
Wind
  • 330° at 5 KTS
Visibility
8,996 meters
Flight Rules
VFR
Cloud Levels
  • Broken at 3,700' AGL
  • Overcast at 4,700' AGL
Temperature
C / 45°F
Dewpoint
C / 41°F
Humidity
87%
Altimeter
30.18" Hg
Pressure
1021.92 hPa
Previous

1 hour ago

EDAC 241650Z AUTO 30004KT 9999 // BKN038/// OVC047/// 08/05 Q1022
Observed
Mar-24 @ 16:50 UTC
Wind
  • 300° at 4 KTS
Visibility
10,000+ meters
Flight Rules
VFR
Cloud Levels
  • Broken at 3,800' AGL
  • Overcast at 4,700' AGL
Temperature
C / 46°F
Dewpoint
C / 41°F
Humidity
82%
Altimeter
30.18" Hg
Pressure
1021.92 hPa